Toyofukumaru — JD2177 — position and weather

sailwx.info

Track history (hours):
 
Tides and Currents Weather Stations Pressure Air Temp Water Temp Dewpoint Dewpoint Depression Visibility Wind Speed Wind Dir Waves Ship Positions

Toyofukumaru

Last reported at 2016-May-24 22:32 UTC. Time now 2016-May-26 04:45 UTC.
Position N 34°36' E 134°53'.

Length 165 m; draft 6.2 m.

Type: Cargo ship. MMSI: 431200688.

Date/timePositionNaut miles runAvg speedWind from/ knotsBaromVisibWave heightAir tempDewpointWater temp
2016-May-24 22:32N 34°36' E 134°53'1212.1
2016-May-24 21:33N 34°27' E 135°03'1919.2
2016-May-24 20:33N 34°08' E 134°60'165 5.9
2016-May-23 16:24N 34°32' E 138°18'3619.6
2016-May-23 14:33N 34°35' E 139°02'1919.2
2016-May-23 13:33N 34°49' E 139°17'1919.2
2016-May-23 12:33N 35°01' E 139°36'1616.2
2016-May-23 11:34N 35°15' E 139°46'1010.5
2016-May-23 10:33N 35°23' E 139°39'0 0.0
2016-May-23 09:32N 35°23' E 139°39'0 0.0
2016-May-23 08:32N 35°23' E 139°39'0 0.0
2016-May-23 07:32N 35°23' E 139°39'0 0.0
2016-May-23 06:32N 35°23' E 139°39'0 0.0
2016-May-23 05:32N 35°23' E 139°39'0 0.0
2016-May-23 04:32N 35°23' E 139°39'0 0.0
2016-May-23 03:32N 35°23' E 139°39'0 0.0
2016-May-23 02:32N 35°23' E 139°39'1 1.5
2016-May-23 01:33N 35°23' E 139°41'1211.9
2016-May-23 00:34N 35°13' E 139°47'1817.9
2016-May-22 23:33N 34°55' E 139°45'1615.9
2016-May-22 22:33N 34°58' E 140°04'1817.8
2016-May-22 21:33N 35°06' E 140°23'1616.5
2016-May-22 20:34N 35°18' E 140°37'1918.9
2016-May-22 19:34N 35°34' E 140°49'1918.7
2016-May-22 18:34N 35°52' E 140°57'1919.3
2016-May-22 17:33N 36°11' E 140°58'1918.8
2016-May-22 16:33N 36°30' E 141°01'1919.1
2016-May-22 15:34N 36°49' E 141°03'1919.1
2016-May-22 14:33N 37°08' E 141°05'38 1.7
2016-May-21 16:31N 36°31' E 140°59'2019.2
2016-May-21 15:28N 36°10' E 140°58'1718.5
2016-May-21 14:33N 35°53' E 140°57'1818.2
2016-May-21 13:33N 35°36' E 140°53'1918.9
2016-May-21 12:33N 35°19' E 140°42'2020.1
2016-May-21 11:33N 35°05' E 140°24'2019.9
2016-May-21 10:33N 34°54' E 140°04'1616.4
2016-May-21 09:34N 34°55' E 139°44'1817.9
2016-May-21 08:33N 35°13' E 139°46'1413.6
2016-May-21 07:33N 35°27' E 139°45'4 3.4
2016-May-21 06:31N 35°30' E 139°45'0 0.0
2016-May-21 05:31N 35°30' E 139°45'0 0.0
2016-May-21 04:31N 35°30' E 139°45'0 0.0
2016-May-21 03:31N 35°30' E 139°45'6 6.4
2016-May-21 02:33N 35°24' E 139°43'3 3.1
2016-May-21 01:33N 35°23' E 139°39'0 0.0
2016-May-21 00:33N 35°23' E 139°39'0 0.0
2016-May-20 23:33N 35°23' E 139°39'0 0.0
2016-May-20 22:33N 35°23' E 139°39'6 5.6
2016-May-20 21:33N 35°19' E 139°43'1413.7
2016-May-20 20:33N 35°06' E 139°43'2020.0
2016-May-20 19:33N 34°52' E 139°25'4618.5
2016-May-20 17:04N 34°30' E 138°35'2 0.1
2016-May-19 15:22N 34°31' E 138°32'5614.8
2016-May-19 11:33N 34°59' E 139°31'1616.5
2016-May-19 10:33N 35°11' E 139°45'1313.0
2016-May-19 09:33N 35°23' E 139°40'1 0.9
2016-May-19 08:31N 35°23' E 139°39'0 0.0
2016-May-19 07:31N 35°23' E 139°39'0 0.0
2016-May-19 06:31N 35°23' E 139°39'0 0.0
2016-May-19 05:31N 35°23' E 139°39'0 0.0
2016-May-19 04:31N 35°23' E 139°39'0 0.0
2016-May-19 03:31N 35°23' E 139°39'0 0.0
2016-May-19 02:32N 35°23' E 139°39'8 8.6
2016-May-19 01:34N 35°17' E 139°45'1514.8
2016-May-19 00:33N 35°02' E 139°44'1414.2
2016-May-18 23:33N 34°53' E 139°57'1817.8
2016-May-18 22:33N 35°01' E 140°16'1716.7
2016-May-18 21:33N 35°11' E 140°33'1919.2
2016-May-18 20:33N 35°27' E 140°45'1919.0
2016-May-18 19:33N 35°44' E 140°56'1919.4
2016-May-18 18:33N 36°03' E 140°58'1919.4
2016-May-18 17:33N 36°22' E 140°60'1919.1
2016-May-18 16:33N 36°41' E 141°01'17 0.8
2016-May-17 19:07N 36°58' E 141°03'1119.4
2016-May-17 18:33N 36°47' E 141°02'2019.6
2016-May-17 17:33N 36°28' E 140°60'2019.5
2016-May-17 16:33N 36°08' E 140°57'1919.3
2016-May-17 15:33N 35°49' E 140°56'1818.1
2016-May-17 14:33N 35°32' E 140°48'1918.8
2016-May-17 13:33N 35°17' E 140°35'2019.2
2016-May-17 12:31N 35°04' E 140°16'1818.9
2016-May-17 11:33N 34°54' E 139°58'1414.2
2016-May-17 10:33N 35°01' E 139°43'1616.1
2016-May-17 09:33N 35°17' E 139°45'1212.3
2016-May-17 08:33N 35°29' E 139°48'2 1.9
2016-May-17 07:28N 35°30' E 139°45'0 0.0
2016-May-17 06:31N 35°30' E 139°45'0 0.0
2016-May-17 05:31N 35°30' E 139°45'0 0.0
2016-May-17 04:31N 35°30' E 139°45'1 1.3
2016-May-17 03:33N 35°30' E 139°44'8 7.2
2016-May-17 02:30N 35°23' E 139°39'0 0.0
2016-May-17 01:33N 35°23' E 139°39'0 0.0
2016-May-17 00:30N 35°23' E 139°39'0 0.0
2016-May-16 23:30N 35°23' E 139°39'0 0.0
2016-May-16 22:30N 35°23' E 139°39'1 1.1
2016-May-16 21:34N 35°24' E 139°40'1312.8
2016-May-16 20:34N 35°12' E 139°47'2519.8
2016-May-16 19:18N 34°53' E 139°27'  
Track history (hours):
 
Tides and Currents Weather Stations Pressure Air Temp Water Temp Dewpoint Dewpoint Depression Visibility Wind Speed Wind Dir Waves Ship Positions

Toyofukumaru

Last reported at 2016-May-24 22:32 UTC. Time now 2016-May-26 04:45 UTC.
Position N 34°36' E 134°53'.

Length 165 m; draft 6.2 m.

Type: Cargo ship. MMSI: 431200688.

Date/timePositionNaut miles runAvg speedWind from/ knotsBaromVisibWave heightAir tempDewpointWater temp
2016-May-24 22:32N 34°36' E 134°53'1212.1
2016-May-24 21:33N 34°27' E 135°03'1919.2
2016-May-24 20:33N 34°08' E 134°60'165 5.9
2016-May-23 16:24N 34°32' E 138°18'3619.6
2016-May-23 14:33N 34°35' E 139°02'1919.2
2016-May-23 13:33N 34°49' E 139°17'1919.2
2016-May-23 12:33N 35°01' E 139°36'1616.2
2016-May-23 11:34N 35°15' E 139°46'1010.5
2016-May-23 10:33N 35°23' E 139°39'0 0.0
2016-May-23 09:32N 35°23' E 139°39'0 0.0
2016-May-23 08:32N 35°23' E 139°39'0 0.0
2016-May-23 07:32N 35°23' E 139°39'0 0.0
2016-May-23 06:32N 35°23' E 139°39'0 0.0
2016-May-23 05:32N 35°23' E 139°39'0 0.0
2016-May-23 04:32N 35°23' E 139°39'0 0.0
2016-May-23 03:32N 35°23' E 139°39'0 0.0
2016-May-23 02:32N 35°23' E 139°39'1 1.5
2016-May-23 01:33N 35°23' E 139°41'1211.9
2016-May-23 00:34N 35°13' E 139°47'1817.9
2016-May-22 23:33N 34°55' E 139°45'1615.9
2016-May-22 22:33N 34°58' E 140°04'1817.8
2016-May-22 21:33N 35°06' E 140°23'1616.5
2016-May-22 20:34N 35°18' E 140°37'1918.9
2016-May-22 19:34N 35°34' E 140°49'1918.7
2016-May-22 18:34N 35°52' E 140°57'1919.3
2016-May-22 17:33N 36°11' E 140°58'1918.8
2016-May-22 16:33N 36°30' E 141°01'1919.1
2016-May-22 15:34N 36°49' E 141°03'1919.1
2016-May-22 14:33N 37°08' E 141°05'38 1.7
2016-May-21 16:31N 36°31' E 140°59'2019.2
2016-May-21 15:28N 36°10' E 140°58'1718.5
2016-May-21 14:33N 35°53' E 140°57'1818.2
2016-May-21 13:33N 35°36' E 140°53'1918.9
2016-May-21 12:33N 35°19' E 140°42'2020.1
2016-May-21 11:33N 35°05' E 140°24'2019.9
2016-May-21 10:33N 34°54' E 140°04'1616.4
2016-May-21 09:34N 34°55' E 139°44'1817.9
2016-May-21 08:33N 35°13' E 139°46'1413.6
2016-May-21 07:33N 35°27' E 139°45'4 3.4
2016-May-21 06:31N 35°30' E 139°45'0 0.0
2016-May-21 05:31N 35°30' E 139°45'0 0.0
2016-May-21 04:31N 35°30' E 139°45'0 0.0
2016-May-21 03:31N 35°30' E 139°45'6 6.4
2016-May-21 02:33N 35°24' E 139°43'3 3.1
2016-May-21 01:33N 35°23' E 139°39'0 0.0
2016-May-21 00:33N 35°23' E 139°39'0 0.0
2016-May-20 23:33N 35°23' E 139°39'0 0.0
2016-May-20 22:33N 35°23' E 139°39'6 5.6
2016-May-20 21:33N 35°19' E 139°43'1413.7
2016-May-20 20:33N 35°06' E 139°43'2020.0
2016-May-20 19:33N 34°52' E 139°25'4618.5
2016-May-20 17:04N 34°30' E 138°35'2 0.1
2016-May-19 15:22N 34°31' E 138°32'5614.8
2016-May-19 11:33N 34°59' E 139°31'1616.5
2016-May-19 10:33N 35°11' E 139°45'1313.0
2016-May-19 09:33N 35°23' E 139°40'1 0.9
2016-May-19 08:31N 35°23' E 139°39'0 0.0
2016-May-19 07:31N 35°23' E 139°39'0 0.0
2016-May-19 06:31N 35°23' E 139°39'0 0.0
2016-May-19 05:31N 35°23' E 139°39'0 0.0
2016-May-19 04:31N 35°23' E 139°39'0 0.0
2016-May-19 03:31N 35°23' E 139°39'0 0.0
2016-May-19 02:32N 35°23' E 139°39'8 8.6
2016-May-19 01:34N 35°17' E 139°45'1514.8
2016-May-19 00:33N 35°02' E 139°44'1414.2
2016-May-18 23:33N 34°53' E 139°57'1817.8
2016-May-18 22:33N 35°01' E 140°16'1716.7
2016-May-18 21:33N 35°11' E 140°33'1919.2
2016-May-18 20:33N 35°27' E 140°45'1919.0
2016-May-18 19:33N 35°44' E 140°56'1919.4
2016-May-18 18:33N 36°03' E 140°58'1919.4
2016-May-18 17:33N 36°22' E 140°60'1919.1
2016-May-18 16:33N 36°41' E 141°01'17 0.8
2016-May-17 19:07N 36°58' E 141°03'1119.4
2016-May-17 18:33N 36°47' E 141°02'2019.6
2016-May-17 17:33N 36°28' E 140°60'2019.5
2016-May-17 16:33N 36°08' E 140°57'1919.3
2016-May-17 15:33N 35°49' E 140°56'1818.1
2016-May-17 14:33N 35°32' E 140°48'1918.8
2016-May-17 13:33N 35°17' E 140°35'2019.2
2016-May-17 12:31N 35°04' E 140°16'1818.9
2016-May-17 11:33N 34°54' E 139°58'1414.2
2016-May-17 10:33N 35°01' E 139°43'1616.1
2016-May-17 09:33N 35°17' E 139°45'1212.3
2016-May-17 08:33N 35°29' E 139°48'2 1.9
2016-May-17 07:28N 35°30' E 139°45'0 0.0
2016-May-17 06:31N 35°30' E 139°45'0 0.0
2016-May-17 05:31N 35°30' E 139°45'0 0.0
2016-May-17 04:31N 35°30' E 139°45'1 1.3
2016-May-17 03:33N 35°30' E 139°44'8 7.2
2016-May-17 02:30N 35°23' E 139°39'0 0.0
2016-May-17 01:33N 35°23' E 139°39'0 0.0
2016-May-17 00:30N 35°23' E 139°39'0 0.0
2016-May-16 23:30N 35°23' E 139°39'0 0.0
2016-May-16 22:30N 35°23' E 139°39'1 1.1
2016-May-16 21:34N 35°24' E 139°40'1312.8
2016-May-16 20:34N 35°12' E 139°47'2519.8
2016-May-16 19:18N 34°53' E 139°27'  

Dump ship's entire track history